createdAt,value
2023-03-07T00:01:36.773Z,25.75
2023-03-07T00:04:07.903Z,31.17
2023-03-07T00:09:10.955Z,25.47
2023-03-07T00:11:41.421Z,25.53
2023-03-07T00:14:11.975Z,29.65
2023-03-07T00:16:42.346Z,28.17
2023-03-07T00:19:12.810Z,23.40
2023-03-07T00:21:45.741Z,25.88
2023-03-07T00:24:16.064Z,29.50
2023-03-07T00:26:46.402Z,29.93
2023-03-07T00:29:16.769Z,29.00
2023-03-07T00:31:47.160Z,25.20
2023-03-07T00:34:17.624Z,25.67
2023-03-07T00:36:50.656Z,27.40
2023-03-07T00:39:21.046Z,23.83
2023-03-07T00:41:51.323Z,29.47
2023-03-07T00:44:22.654Z,27.03
2023-03-07T00:49:23.099Z,25.53
2023-03-07T00:51:56.245Z,26.07
2023-03-07T00:54:26.967Z,28.43
2023-03-07T00:56:57.647Z,26.90
2023-03-07T00:59:28.150Z,25.98
2023-03-07T01:01:58.512Z,27.58
2023-03-07T01:04:28.923Z,25.40
2023-03-07T01:07:01.954Z,27.15
2023-03-07T01:09:32.306Z,27.60
2023-03-07T01:12:03.157Z,31.00
2023-03-07T01:14:33.544Z,26.40
2023-03-07T01:17:04.092Z,26.10
2023-03-07T01:19:34.389Z,24.73
2023-03-07T01:22:07.557Z,27.23
2023-03-07T01:24:37.867Z,27.60
2023-03-07T01:27:08.783Z,27.37
2023-03-07T01:29:39.399Z,28.65
2023-03-07T01:32:10.170Z,28.67
2023-03-07T01:34:40.888Z,27.40
2023-03-07T01:37:13.876Z,26.70
2023-03-07T01:39:44.210Z,29.43
2023-03-07T01:42:18.935Z,29.10
2023-03-07T01:45:06.287Z,27.07
2023-03-07T01:47:44.252Z,28.57
2023-03-07T01:50:18.327Z,26.10
2023-03-07T01:52:56.391Z,28.33
2023-03-07T01:55:32.243Z,28.97
2023-03-07T01:58:17.211Z,29.30
2023-03-07T02:00:48.674Z,25.83
2023-03-07T02:03:29.526Z,23.50
2023-03-07T02:06:03.102Z,32.05
2023-03-07T02:08:38.606Z,25.07
2023-03-07T02:11:10.048Z,23.80
2023-03-07T02:13:40.593Z,23.10
2023-03-07T02:16:11.806Z,25.67
2023-03-07T02:18:49.994Z,25.80
2023-03-07T02:21:36.119Z,29.13
2023-03-07T02:24:20.608Z,25.23
2023-03-07T02:26:56.191Z,24.73
2023-03-07T02:29:27.341Z,22.40
2023-03-07T02:31:57.719Z,24.25
2023-03-07T02:34:30.887Z,26.07
2023-03-07T02:37:15.665Z,23.53
2023-03-07T02:39:49.335Z,24.90
2023-03-07T02:42:26.841Z,22.83
2023-03-07T02:45:10.392Z,22.10
2023-03-07T02:47:42.937Z,22.80
2023-03-07T02:50:17.210Z,23.27
2023-03-07T02:52:51.196Z,21.57
2023-03-07T02:55:21.847Z,22.15
2023-03-07T02:58:02.358Z,20.77
2023-03-07T03:00:32.904Z,21.73
2023-03-07T03:03:03.492Z,22.47
2023-03-07T03:05:33.950Z,23.50
2023-03-07T03:08:04.385Z,20.75
2023-03-07T03:10:34.672Z,23.43
2023-03-07T03:13:08.002Z,20.25
2023-03-07T03:15:38.453Z,20.77
2023-03-07T03:18:08.821Z,18.37
2023-03-07T03:20:42.277Z,19.23
2023-03-07T03:23:12.603Z,20.47
2023-03-07T03:25:42.978Z,20.00
2023-03-07T03:28:16.272Z,23.50
2023-03-07T03:30:46.597Z,21.00
2023-03-07T03:33:16.958Z,22.23
2023-03-07T03:35:49.248Z,20.47
2023-03-07T03:38:20.029Z,20.42
2023-03-07T03:40:50.842Z,19.88
2023-03-07T03:43:24.915Z,19.80
2023-03-07T03:46:01.436Z,17.70
2023-03-07T03:48:32.595Z,21.53
2023-03-07T03:51:08.291Z,22.83
2023-03-07T03:53:41.117Z,22.27
2023-03-07T03:56:14.699Z,19.97
2023-03-07T03:58:51.631Z,20.00
2023-03-07T04:01:24.429Z,20.37
2023-03-07T04:03:56.874Z,22.67
2023-03-07T04:06:29.231Z,23.60
2023-03-07T04:09:00.533Z,23.13
2023-03-07T04:11:31.004Z,21.02
2023-03-07T04:14:04.092Z,21.87
2023-03-07T04:16:34.460Z,21.00
2023-03-07T04:19:04.913Z,21.67
2023-03-07T04:21:35.493Z,21.27
2023-03-07T04:24:06.358Z,21.83
2023-03-07T04:26:37.325Z,22.60
2023-03-07T04:29:10.283Z,20.73
2023-03-07T04:32:03.337Z,20.13
2023-03-07T04:34:33.989Z,23.58
2023-03-07T04:37:04.767Z,22.92
2023-03-07T04:39:35.402Z,23.25
2023-03-07T04:42:06.693Z,21.65
2023-03-07T04:44:42.331Z,23.50
2023-03-07T04:47:12.726Z,23.87
2023-03-07T04:49:43.056Z,22.77
2023-03-07T04:52:13.684Z,23.00
2023-03-07T04:54:45.219Z,21.05
2023-03-07T04:57:15.532Z,23.37
2023-03-07T04:59:49.138Z,21.00
2023-03-07T05:02:19.715Z,19.73
2023-03-07T05:04:50.678Z,21.50
2023-03-07T05:07:21.145Z,22.25
2023-03-07T05:09:53.188Z,22.00
2023-03-07T05:12:23.817Z,22.27
2023-03-07T05:14:57.127Z,20.70
2023-03-07T05:17:27.427Z,22.63
2023-03-07T05:19:57.774Z,21.67
2023-03-07T05:22:28.844Z,19.55
2023-03-07T05:25:00.050Z,20.25
2023-03-07T05:27:30.709Z,21.17
2023-03-07T05:30:03.881Z,18.50
2023-03-07T05:32:34.241Z,20.77
2023-03-07T05:35:05.110Z,20.73
2023-03-07T05:37:35.781Z,21.90
2023-03-07T05:40:09.143Z,18.35
2023-03-07T05:42:44.751Z,17.23
2023-03-07T05:45:22.109Z,21.30
2023-03-07T05:47:53.173Z,18.07
2023-03-07T05:50:24.129Z,48.53
2023-03-07T05:52:55.128Z,19.65
2023-03-07T05:55:28.199Z,19.30
2023-03-07T05:57:59.867Z,16.73
2023-03-07T06:00:34.426Z,19.30
2023-03-07T06:03:05.948Z,15.80
2023-03-07T06:05:37.200Z,16.53
2023-03-07T06:08:08.602Z,19.60
2023-03-07T06:10:40.370Z,18.83
2023-03-07T06:13:21.823Z,16.13
2023-03-07T06:15:57.106Z,16.90
2023-03-07T06:18:29.182Z,18.23
2023-03-07T06:21:05.100Z,17.97
2023-03-07T06:23:40.192Z,15.87
2023-03-07T06:26:15.613Z,15.67
2023-03-07T06:28:49.269Z,21.17
2023-03-07T06:31:23.660Z,15.93
2023-03-07T06:33:57.730Z,15.07
2023-03-07T06:36:31.993Z,15.60
2023-03-07T06:39:05.107Z,14.90
2023-03-07T06:41:37.140Z,13.30
2023-03-07T06:44:08.676Z,14.73
2023-03-07T06:46:41.636Z,15.40
2023-03-07T06:49:16.843Z,15.47
2023-03-07T06:51:50.098Z,14.13
2023-03-07T06:54:20.944Z,12.30
2023-03-07T06:56:51.733Z,14.38
2023-03-07T06:59:25.644Z,15.17
2023-03-07T07:01:58.921Z,14.23
2023-03-07T07:04:29.468Z,14.37
2023-03-07T07:07:00.574Z,12.38
2023-03-07T07:09:34.308Z,13.80
2023-03-07T07:12:06.074Z,13.50
2023-03-07T07:14:38.236Z,14.00
2023-03-07T07:17:11.405Z,16.70
2023-03-07T07:19:41.755Z,18.00
2023-03-07T07:22:12.357Z,13.23
2023-03-07T07:24:43.026Z,12.25
2023-03-07T07:27:17.076Z,14.98
2023-03-07T07:29:47.524Z,12.67
2023-03-07T07:32:21.011Z,14.25
2023-03-07T07:34:51.692Z,15.17
2023-03-07T07:37:24.045Z,11.88
2023-03-07T07:39:54.909Z,13.90
2023-03-07T07:42:25.320Z,12.50
2023-03-07T07:45:18.284Z,11.53
2023-03-07T07:47:55.097Z,11.57
2023-03-07T07:50:26.599Z,11.67
2023-03-07T07:52:57.159Z,12.15
2023-03-07T07:55:28.669Z,10.73
2023-03-07T08:00:30.048Z,11.02
2023-03-07T08:03:03.256Z,9.80
2023-03-07T08:05:33.534Z,26.80
2023-03-07T08:08:04.044Z,10.73
2023-03-07T08:10:35.668Z,10.33
2023-03-07T08:13:06.029Z,9.68
2023-03-07T08:15:36.516Z,14.30
2023-03-07T08:18:11.090Z,9.18
2023-03-07T08:20:42.183Z,10.23
2023-03-07T08:23:12.521Z,10.95
2023-03-07T08:25:43.066Z,9.47
2023-03-07T08:28:13.538Z,10.02
2023-03-07T08:30:43.947Z,10.23
2023-03-07T08:33:16.896Z,8.87
2023-03-07T08:35:47.270Z,9.23
2023-03-07T08:38:17.599Z,8.57
2023-03-07T08:40:47.873Z,10.87
2023-03-07T08:43:18.115Z,9.47
2023-03-07T08:45:48.496Z,9.70
2023-03-07T08:48:21.444Z,8.43
2023-03-07T08:50:53.709Z,10.18
2023-03-07T08:53:25.750Z,12.73
2023-03-07T08:55:56.040Z,10.00
2023-03-07T08:58:26.891Z,11.57
2023-03-07T09:00:58.313Z,11.13
2023-03-07T09:03:31.299Z,10.85
2023-03-07T09:06:01.690Z,10.10
2023-03-07T09:08:32.218Z,11.13
2023-03-07T09:11:05.518Z,10.05
2023-03-07T09:13:43.097Z,11.23
2023-03-07T09:16:20.454Z,10.15
2023-03-07T09:18:54.112Z,11.43
2023-03-07T09:21:24.599Z,10.60
2023-03-07T09:23:54.944Z,10.83
2023-03-07T09:26:25.218Z,11.90
2023-03-07T09:28:55.739Z,11.27
2023-03-07T09:31:26.255Z,10.70
2023-03-07T09:34:00.133Z,10.73
2023-03-07T09:36:30.415Z,12.27
2023-03-07T09:39:00.794Z,10.10
2023-03-07T09:41:58.347Z,13.17
2023-03-07T09:44:44.085Z,12.25
2023-03-07T09:48:05.293Z,11.98
2023-03-07T09:50:49.369Z,14.30
2023-03-07T09:53:27.183Z,9.35
2023-03-07T09:56:10.914Z,10.60
2023-03-07T09:58:46.812Z,11.00
2023-03-07T10:01:24.470Z,11.43
2023-03-07T10:04:03.256Z,12.32
2023-03-07T10:06:41.591Z,10.80
2023-03-07T10:09:22.303Z,11.52
2023-03-07T10:12:13.380Z,13.65
2023-03-07T10:15:01.424Z,11.77
2023-03-07T10:18:00.102Z,10.73
2023-03-07T10:20:42.503Z,12.10
2023-03-07T10:23:44.230Z,10.73
2023-03-07T10:26:20.095Z,11.82
2023-03-07T10:28:51.958Z,10.90
2023-03-07T10:31:28.716Z,13.07
2023-03-07T10:33:59.258Z,11.00
2023-03-07T10:36:41.293Z,11.70
2023-03-07T10:39:28.599Z,11.32
2023-03-07T10:42:00.082Z,11.18
2023-03-07T10:44:35.941Z,11.90
2023-03-07T10:47:06.470Z,13.07
2023-03-07T10:49:45.099Z,10.65
2023-03-07T10:52:31.266Z,11.40
2023-03-07T10:55:49.120Z,10.55
2023-03-07T10:58:28.034Z,10.98
2023-03-07T11:01:20.241Z,13.38
2023-03-07T11:03:57.538Z,10.40
2023-03-07T11:06:40.162Z,11.52
2023-03-07T11:09:26.190Z,11.57
2023-03-07T11:12:00.816Z,11.35
2023-03-07T11:14:33.888Z,9.75
2023-03-07T11:17:05.688Z,10.75
2023-03-07T11:19:46.095Z,10.35
2023-03-07T11:22:33.723Z,8.80
2023-03-07T11:25:13.711Z,9.95
2023-03-07T11:27:55.300Z,11.43
2023-03-07T11:30:32.762Z,12.40
2023-03-07T11:33:15.618Z,11.02
2023-03-07T11:36:02.863Z,13.52
2023-03-07T11:38:53.464Z,13.30
2023-03-07T11:41:30.705Z,11.55
2023-03-07T11:44:18.870Z,9.88
2023-03-07T11:47:17.123Z,8.73
2023-03-07T11:49:50.145Z,11.13
2023-03-07T11:52:57.808Z,9.10
2023-03-07T11:55:36.444Z,9.38
2023-03-07T11:58:39.408Z,10.70
2023-03-07T12:01:23.316Z,10.52
2023-03-07T12:04:36.492Z,9.60
2023-03-07T12:07:21.957Z,8.43
2023-03-07T12:09:58.824Z,9.25
2023-03-07T12:12:46.095Z,10.35
2023-03-07T12:15:34.096Z,9.88
2023-03-07T12:18:37.580Z,9.90
2023-03-07T12:21:36.938Z,9.25
2023-03-07T12:24:17.017Z,12.80
2023-03-07T12:26:55.276Z,11.98
2023-03-07T12:29:39.053Z,10.00
2023-03-07T12:32:15.229Z,11.30
2023-03-07T12:34:51.205Z,10.05
2023-03-07T12:37:29.320Z,11.48
2023-03-07T12:40:05.995Z,10.13
2023-03-07T12:42:45.184Z,11.98
2023-03-07T12:45:20.154Z,9.95
2023-03-07T12:48:03.584Z,10.13
2023-03-07T12:50:43.924Z,11.95
2023-03-07T12:53:25.280Z,10.33
2023-03-07T12:56:01.478Z,12.68
2023-03-07T12:58:43.380Z,10.98
2023-03-07T13:01:18.790Z,9.88
2023-03-07T13:03:58.506Z,10.20
2023-03-07T13:06:29.828Z,11.10
2023-03-07T13:09:05.458Z,10.00
2023-03-07T13:11:38.843Z,9.10
2023-03-07T13:14:09.373Z,10.98
2023-03-07T13:16:44.168Z,9.27
2023-03-07T13:19:55.663Z,10.35
2023-03-07T13:23:00.275Z,10.98
2023-03-07T13:26:09.251Z,13.10
2023-03-07T13:28:54.141Z,9.18
2023-03-07T13:31:43.574Z,11.43
2023-03-07T13:34:52.714Z,11.45
2023-03-07T13:37:59.683Z,10.93
2023-03-07T13:40:54.983Z,8.93
2023-03-07T13:44:05.045Z,10.48
2023-03-07T13:47:01.456Z,12.88
2023-03-07T13:49:48.458Z,14.25
2023-03-07T13:52:41.234Z,12.55
2023-03-07T13:55:31.574Z,10.45
2023-03-07T13:58:18.055Z,12.68
2023-03-07T14:00:59.017Z,8.82
2023-03-07T14:03:34.851Z,8.30
2023-03-07T14:06:12.318Z,10.02
2023-03-07T14:08:43.207Z,8.90
2023-03-07T14:11:27.219Z,8.30
2023-03-07T14:14:28.296Z,9.77
2023-03-07T14:17:30.310Z,8.32
2023-03-07T14:20:11.753Z,7.97
2023-03-07T14:22:58.897Z,7.60
2023-03-07T14:25:30.664Z,8.10
2023-03-07T14:28:03.679Z,9.90
2023-03-07T14:30:36.710Z,10.38
2023-03-07T14:33:09.668Z,9.82
2023-03-07T14:35:45.564Z,9.05
2023-03-07T14:38:23.515Z,9.05
2023-03-07T14:41:21.096Z,9.20
2023-03-07T14:44:05.647Z,7.85
2023-03-07T14:46:51.737Z,8.05
2023-03-07T14:49:39.027Z,8.05
2023-03-07T14:52:28.270Z,9.45
2023-03-07T14:55:03.038Z,8.77
2023-03-07T14:57:38.763Z,8.90
2023-03-07T15:00:20.107Z,8.90
2023-03-07T15:02:51.647Z,7.68
2023-03-07T15:05:27.395Z,8.85
2023-03-07T15:07:58.326Z,9.30
2023-03-07T15:10:33.546Z,8.25
2023-03-07T15:13:13.441Z,7.95
2023-03-07T15:15:51.166Z,9.63
2023-03-07T15:18:26.340Z,7.10
2023-03-07T15:21:01.440Z,9.38
2023-03-07T15:23:32.561Z,6.93
2023-03-07T15:28:40.477Z,9.80
2023-03-07T15:31:14.133Z,8.45
2023-03-07T15:33:45.269Z,8.30
2023-03-07T15:36:28.612Z,7.35
2023-03-07T15:39:34.754Z,8.52
2023-03-07T15:42:09.077Z,8.75
2023-03-07T15:44:39.891Z,7.82
2023-03-07T15:47:19.656Z,7.57
2023-03-07T15:49:52.772Z,9.60
2023-03-07T15:52:37.710Z,7.88
2023-03-07T15:55:20.446Z,9.75
2023-03-07T15:57:56.403Z,9.48
2023-03-07T16:00:35.953Z,8.68
2023-03-07T16:03:28.227Z,12.88
2023-03-07T16:06:01.753Z,10.07
2023-03-07T16:08:34.710Z,8.60
2023-03-07T16:11:08.391Z,9.43
2023-03-07T16:13:43.930Z,10.48
2023-03-07T16:16:24.296Z,10.50
2023-03-07T16:18:57.532Z,8.70
2023-03-07T16:21:30.732Z,14.38
2023-03-07T16:24:03.699Z,10.25
2023-03-07T16:26:35.021Z,8.70
2023-03-07T16:29:05.678Z,8.82
2023-03-07T16:31:36.128Z,8.82
2023-03-07T16:34:06.591Z,9.18
2023-03-07T16:36:37.006Z,9.85
2023-03-07T16:39:10.105Z,10.20
2023-03-07T16:41:41.645Z,9.75
2023-03-07T16:44:19.109Z,9.15
2023-03-07T16:46:57.724Z,7.80
2023-03-07T16:49:28.068Z,10.45
2023-03-07T16:52:05.813Z,7.60
2023-03-07T16:54:39.595Z,9.05
2023-03-07T16:57:15.958Z,8.05
2023-03-07T16:59:49.743Z,9.27
2023-03-07T17:02:22.514Z,8.75
2023-03-07T17:04:52.864Z,9.23
2023-03-07T17:07:26.736Z,14.83
2023-03-07T17:10:01.692Z,13.27
2023-03-07T17:12:32.058Z,9.77
2023-03-07T17:15:02.738Z,14.10
2023-03-07T17:17:36.559Z,10.48
2023-03-07T17:20:08.959Z,9.35
2023-03-07T17:22:40.126Z,10.55
2023-03-07T17:25:13.867Z,10.63
2023-03-07T17:27:47.781Z,8.98
2023-03-07T17:30:23.775Z,9.02
2023-03-07T17:32:55.190Z,12.18
2023-03-07T17:35:26.135Z,11.55
2023-03-07T17:37:56.592Z,9.50
2023-03-07T17:40:29.603Z,10.23
2023-03-07T17:42:59.890Z,11.57
2023-03-07T17:45:30.337Z,9.17
2023-03-07T17:48:00.789Z,8.95
2023-03-07T17:50:31.063Z,8.07
2023-03-07T17:53:01.792Z,9.20
2023-03-07T17:55:34.856Z,12.77
2023-03-07T17:58:05.255Z,10.38
2023-03-07T18:00:35.718Z,11.77
2023-03-07T18:03:06.979Z,11.73
2023-03-07T18:05:37.409Z,10.23
2023-03-07T18:08:07.875Z,10.97
2023-03-07T18:10:40.900Z,11.05
2023-03-07T18:13:11.268Z,10.40
2023-03-07T18:15:41.719Z,10.30
2023-03-07T18:18:12.102Z,9.25
2023-03-07T18:20:42.520Z,9.17
2023-03-07T18:23:12.773Z,11.05
2023-03-07T18:25:45.660Z,9.27
2023-03-07T18:28:16.357Z,11.60
2023-03-07T18:30:47.038Z,12.48
2023-03-07T18:33:17.402Z,14.90
2023-03-07T18:35:48.059Z,10.73
2023-03-07T18:38:18.376Z,11.27
2023-03-07T18:40:53.845Z,13.13
2023-03-07T18:43:24.274Z,9.52
2023-03-07T18:45:54.578Z,11.33
2023-03-07T18:48:24.871Z,10.10
2023-03-07T18:51:00.538Z,11.40
2023-03-07T18:53:31.221Z,11.90
2023-03-07T18:56:06.185Z,14.88
2023-03-07T18:58:37.047Z,9.90
2023-03-07T19:01:16.336Z,11.15
2023-03-07T19:03:48.073Z,11.55
2023-03-07T19:06:21.424Z,13.70
2023-03-07T19:08:51.837Z,11.35
2023-03-07T19:11:25.111Z,12.25
2023-03-07T19:13:55.651Z,10.65
2023-03-07T19:16:28.262Z,12.85
2023-03-07T19:19:00.089Z,13.88
2023-03-07T19:21:32.424Z,11.73
2023-03-07T19:24:07.917Z,15.13
2023-03-07T19:26:42.822Z,12.20
2023-03-07T19:29:13.855Z,13.60
2023-03-07T19:31:45.010Z,12.13
2023-03-07T19:34:15.421Z,13.35
2023-03-07T19:36:45.781Z,15.30
2023-03-07T19:39:20.596Z,12.97
2023-03-07T19:41:53.549Z,14.50
2023-03-07T19:44:24.141Z,11.95
2023-03-07T19:46:54.687Z,14.65
2023-03-07T19:49:26.952Z,27.65
2023-03-07T19:51:57.318Z,14.70
2023-03-07T19:54:27.672Z,12.70
2023-03-07T19:57:01.087Z,11.93
2023-03-07T19:59:31.690Z,12.82
2023-03-07T20:02:02.470Z,14.23
2023-03-07T20:04:33.377Z,15.18
2023-03-07T20:07:04.095Z,13.13
2023-03-07T20:09:35.350Z,12.57
2023-03-07T20:14:43.185Z,17.27
2023-03-07T20:17:14.492Z,15.40
2023-03-07T20:19:45.276Z,17.52
2023-03-07T20:22:15.795Z,17.77
2023-03-07T20:24:46.410Z,17.20
2023-03-07T20:27:21.885Z,17.90
2023-03-07T20:29:52.563Z,15.80
2023-03-07T20:32:23.044Z,16.85
2023-03-07T20:34:56.319Z,17.42
2023-03-07T20:37:27.663Z,16.23
2023-03-07T20:39:58.186Z,17.48
2023-03-07T20:42:31.153Z,15.25
2023-03-07T20:45:01.486Z,18.17
2023-03-07T20:47:32.585Z,16.53
2023-03-07T20:50:02.882Z,15.80
2023-03-07T20:52:33.194Z,10.17
2023-03-07T20:55:05.036Z,15.33
2023-03-07T20:57:37.878Z,14.35
2023-03-07T21:00:10.667Z,12.00
2023-03-07T21:02:40.967Z,12.73
2023-03-07T21:05:12.172Z,11.47
2023-03-07T21:10:15.341Z,10.02
2023-03-07T21:12:48.326Z,9.63
2023-03-07T21:15:18.849Z,8.30
2023-03-07T21:17:51.350Z,7.63
2023-03-07T21:20:22.123Z,9.13
2023-03-07T21:22:52.546Z,10.23
2023-03-07T21:25:22.821Z,10.23
2023-03-07T21:27:55.735Z,7.80
2023-03-07T21:30:26.028Z,7.43
2023-03-07T21:32:58.910Z,8.93
2023-03-07T21:35:29.413Z,7.20
2023-03-07T21:37:59.913Z,4.95
2023-03-07T21:40:30.222Z,5.07
2023-03-07T21:43:03.580Z,7.30
2023-03-07T21:45:35.749Z,6.90
2023-03-07T21:48:06.106Z,6.90
2023-03-07T21:50:37.965Z,5.07
2023-03-07T21:53:08.293Z,4.20
2023-03-07T21:55:38.708Z,4.50
2023-03-07T21:58:11.692Z,4.43
2023-03-07T22:00:42.056Z,4.30
2023-03-07T22:03:12.352Z,4.53
2023-03-07T22:05:43.197Z,4.37
2023-03-07T22:08:16.049Z,4.13
2023-03-07T22:10:47.329Z,3.67
2023-03-07T22:15:50.339Z,3.67
2023-03-07T22:18:21.011Z,3.55
2023-03-07T22:20:51.410Z,3.63
2023-03-07T22:23:21.766Z,2.83
2023-03-07T22:25:52.116Z,2.57
2023-03-07T22:28:25.054Z,2.80
2023-03-07T22:30:55.350Z,3.00
2023-03-07T22:33:25.653Z,4.93
2023-03-07T22:36:00.728Z,3.70
2023-03-07T22:38:31.892Z,2.73
2023-03-07T22:41:06.319Z,2.72
2023-03-07T22:43:39.883Z,2.80
2023-03-07T22:46:10.801Z,3.87
2023-03-07T22:48:41.846Z,2.95
2023-03-07T22:51:17.942Z,3.40
2023-03-07T22:53:49.067Z,3.17
2023-03-07T22:56:22.258Z,2.92
2023-03-07T22:58:55.507Z,2.90
2023-03-07T23:01:28.368Z,4.47
2023-03-07T23:04:00.786Z,3.43
2023-03-07T23:06:33.778Z,4.33
2023-03-07T23:09:04.892Z,4.00
2023-03-07T23:11:36.677Z,3.28
2023-03-07T23:14:09.866Z,4.17
2023-03-07T23:16:41.527Z,3.60
2023-03-07T23:19:12.447Z,3.80
2023-03-07T23:21:42.898Z,4.30
2023-03-07T23:24:14.620Z,3.90
2023-03-07T23:26:45.152Z,3.90
2023-03-07T23:29:18.210Z,4.03
2023-03-07T23:31:48.756Z,4.33
2023-03-07T23:34:22.418Z,3.60
2023-03-07T23:36:52.741Z,4.57
2023-03-07T23:39:23.413Z,5.00
2023-03-07T23:41:54.112Z,4.57
2023-03-07T23:44:27.384Z,3.83
2023-03-07T23:46:57.738Z,4.33
2023-03-07T23:49:28.259Z,4.20
2023-03-07T23:51:58.777Z,4.33
2023-03-07T23:54:29.235Z,5.55
2023-03-07T23:56:59.568Z,4.50
2023-03-07T23:59:32.510Z,4.53
